Time;durP1;ratioP1;P1;durP2;ratioP2;P2;SDS_P1;SDS_P2;PMS_P1;PMS_P2;Temp;Humidity;BMP_temperature;BMP_pressure;BME280_temperature;BME280_humidity;BME280_pressure;Samples;Min_cycle;Max_cycle;Signal;HPM_P1;HPM_P2
2021/03/17 00:00:35;;;;;;;5.50;3.03;;;4.70;93.30;;;;;;5038650;28;20574;-72
2021/03/17 00:03:01;;;;;;;4.67;2.93;;;4.70;93.10;;;;;;5036189;28;20469;-73
2021/03/17 00:05:30;;;;;;;5.23;2.93;;;4.60;93.20;;;;;;5045363;28;20435;-72
2021/03/17 00:07:56;;;;;;;5.93;2.80;;;4.60;93.20;;;;;;5048757;28;20443;-70
2021/03/17 00:10:23;;;;;;;5.00;3.23;;;4.60;93.30;;;;;;5036656;28;20471;-73
2021/03/17 00:12:50;;;;;;;5.70;3.40;;;4.60;93.30;;;;;;5039592;28;20466;-73
2021/03/17 00:15:21;;;;;;;5.30;3.10;;;4.60;93.30;;;;;;5049491;28;20553;-73
2021/03/17 00:17:47;;;;;;;7.53;3.17;;;4.60;93.30;;;;;;5045300;28;20958;-73
2021/03/17 00:20:13;;;;;;;5.83;3.40;;;4.60;93.50;;;;;;5034188;28;20454;-73
2021/03/17 00:22:39;;;;;;;10.77;3.63;;;4.60;93.60;;;;;;5030192;28;20483;-71
2021/03/17 00:25:06;;;;;;;10.37;3.40;;;4.50;93.80;;;;;;5049065;28;20427;-71
2021/03/17 00:27:31;;;;;;;6.63;3.13;;;4.60;93.70;;;;;;5049834;28;20189;-71
2021/03/17 00:29:57;;;;;;;5.57;3.50;;;4.60;93.60;;;;;;5048064;28;20455;-70
2021/03/17 00:32:23;;;;;;;6.57;3.47;;;4.60;93.40;;;;;;5044287;28;20432;-71
2021/03/17 00:34:49;;;;;;;6.00;3.10;;;4.60;93.50;;;;;;5038989;28;20858;-71
2021/03/17 00:37:15;;;;;;;6.67;2.77;;;4.60;93.40;;;;;;5049154;28;20522;-71
2021/03/17 00:39:41;;;;;;;5.60;3.10;;;4.70;93.50;;;;;;5049104;28;20186;-71
2021/03/17 00:42:06;;;;;;;8.77;3.70;;;4.60;93.40;;;;;;5048589;28;20196;-72
2021/03/17 00:44:32;;;;;;;4.60;3.07;;;4.70;93.40;;;;;;5046887;28;20211;-72
2021/03/17 00:46:58;;;;;;;4.63;2.83;;;4.60;93.60;;;;;;5048804;28;20272;-73
2021/03/17 00:49:24;;;;;;;6.00;3.37;;;4.60;93.50;;;;;;5047596;28;20216;-72
2021/03/17 00:51:49;;;;;;;6.57;3.60;;;4.60;93.50;;;;;;5048494;28;20732;-71
2021/03/17 00:54:15;;;;;;;5.50;2.80;;;4.50;93.50;;;;;;5038714;28;20205;-72
2021/03/17 00:56:41;;;;;;;6.47;3.40;;;4.60;93.90;;;;;;5028936;28;20192;-71
2021/03/17 00:59:07;;;;;;;6.10;3.17;;;4.60;93.90;;;;;;5029328;28;20189;-71
2021/03/17 01:01:32;;;;;;;7.47;3.73;;;4.60;93.80;;;;;;5027648;28;20196;-72
2021/03/17 01:03:58;;;;;;;5.73;3.53;;;4.60;93.80;;;;;;5019972;28;20241;-72
2021/03/17 01:06:24;;;;;;;7.93;4.20;;;4.60;93.70;;;;;;5026235;28;20243;-71
2021/03/17 01:08:50;;;;;;;7.70;3.97;;;4.50;93.70;;;;;;5042748;28;20270;-71
2021/03/17 01:11:15;;;;;;;9.40;3.90;;;4.60;93.90;;;;;;5037385;28;20208;-72
2021/03/17 01:13:41;;;;;;;6.80;3.90;;;4.60;93.70;;;;;;5045504;28;20723;-72
2021/03/17 01:16:07;;;;;;;9.83;4.37;;;4.60;94.00;;;;;;5046094;28;20655;-73
2021/03/17 01:18:33;;;;;;;8.20;4.40;;;4.60;94.10;;;;;;5039510;28;20439;-75
2021/03/17 01:20:59;;;;;;;8.73;4.70;;;4.50;94.20;;;;;;5039149;28;20242;-72
2021/03/17 01:23:25;;;;;;;9.30;4.30;;;4.50;94.50;;;;;;5041714;28;20882;-71
2021/03/17 01:25:50;;;;;;;8.13;4.33;;;4.50;94.70;;;;;;5030624;28;20805;-71
2021/03/17 01:28:16;;;;;;;7.10;4.47;;;4.40;94.80;;;;;;5033183;28;20664;-72
2021/03/17 01:30:49;;;;;;;7.57;4.23;;;4.40;94.90;;;;;;5047411;28;20216;-72
2021/03/17 01:33:16;;;;;;;10.43;4.50;;;4.50;95.10;;;;;;5044318;28;20217;-72
2021/03/17 01:35:44;;;;;;;10.57;4.80;;;4.50;95.10;;;;;;5038777;28;20423;-72
2021/03/17 01:38:10;;;;;;;7.97;4.67;;;4.50;95.00;;;;;;5046942;28;20519;-72
2021/03/17 01:40:38;;;;;;;9.97;4.77;;;4.60;95.00;;;;;;5032313;28;20554;-72
2021/03/17 01:43:05;;;;;;;9.40;4.50;;;4.60;94.80;;;;;;5033172;28;20266;-73
2021/03/17 01:45:31;;;;;;;12.53;4.83;;;4.70;94.70;;;;;;5046714;28;20470;-72
2021/03/17 01:47:57;;;;;;;8.47;4.07;;;4.70;94.50;;;;;;5034311;28;20427;-72
2021/03/17 01:50:29;;;;;;;7.70;3.97;;;4.60;94.20;;;;;;5048983;28;20479;-71
2021/03/17 01:52:59;;;;;;;9.10;4.60;;;4.60;94.20;;;;;;5032919;28;20451;-73
2021/03/17 01:55:24;;;;;;;8.43;4.20;;;4.70;94.30;;;;;;5041542;28;20431;-73
2021/03/17 01:57:51;;;;;;;8.43;4.90;;;4.70;94.50;;;;;;5059536;28;20419;-70
2021/03/17 02:00:19;;;;;;;8.97;3.93;;;4.80;94.60;;;;;;5042180;28;20434;-73
2021/03/17 04:51:41;;;;;;;9.93;4.90;;;3.90;96.20;;;;;;5030227;28;20643;-77
2021/03/17 04:54:07;;;;;;;10.80;5.20;;;3.80;96.30;;;;;;5035220;28;20299;-77
2021/03/17 04:56:33;;;;;;;10.40;5.90;;;3.90;96.60;;;;;;5036871;28;20953;-77
2021/03/17 04:59:02;;;;;;;10.60;5.40;;;4.00;96.60;;;;;;5037926;28;20901;-76
2021/03/17 05:01:31;;;;;;;11.93;5.93;;;4.00;96.50;;;;;;5050685;28;20458;-75
2021/03/17 05:03:57;;;;;;;16.07;7.20;;;4.00;96.30;;;;;;5042237;28;20589;-74
2021/03/17 05:06:23;;;;;;;12.30;6.60;;;4.00;96.40;;;;;;5026128;28;20522;-76
2021/03/17 05:08:49;;;;;;;15.00;6.80;;;3.90;96.30;;;;;;5030572;28;20424;-71
2021/03/17 05:11:16;;;;;;;12.67;6.37;;;4.00;96.40;;;;;;5022757;28;20209;-72
2021/03/17 05:13:43;;;;;;;14.20;7.70;;;3.90;96.40;;;;;;5028783;28;20935;-72
2021/03/17 05:16:11;;;;;;;13.10;6.37;;;3.90;96.40;;;;;;5029202;28;20481;-73
2021/03/17 05:18:38;;;;;;;15.03;7.90;;;3.90;96.50;;;;;;5048239;28;20454;-71
2021/03/17 05:21:05;;;;;;;14.23;7.80;;;3.90;96.60;;;;;;5047533;28;20583;-72
2021/03/17 05:23:31;;;;;;;15.73;7.63;;;3.90;96.50;;;;;;5035268;28;20439;-71
2021/03/17 05:25:58;;;;;;;15.93;8.27;;;3.90;96.50;;;;;;5046298;28;20510;-72
2021/03/17 05:28:25;;;;;;;16.17;6.97;;;3.90;96.50;;;;;;5036967;28;20188;-72
2021/03/17 05:30:52;;;;;;;19.40;8.80;;;4.00;96.60;;;;;;5035554;28;21120;-71
2021/03/17 05:33:23;;;;;;;14.87;7.53;;;4.00;96.60;;;;;;5047538;28;20453;-73
2021/03/17 05:35:49;;;;;;;15.80;8.43;;;4.00;96.50;;;;;;5030374;28;20902;-73
2021/03/17 05:38:15;;;;;;;17.10;8.73;;;4.00;96.60;;;;;;5039875;28;20490;-73
2021/03/17 05:40:41;;;;;;;16.93;7.87;;;4.00;96.50;;;;;;5034310;28;20529;-72
2021/03/17 05:43:08;;;;;;;22.27;8.97;;;4.00;96.30;;;;;;5038705;28;20213;-72
2021/03/17 05:45:35;;;;;;;22.88;10.57;;;3.90;96.40;;;;;;5041750;28;20511;-73
2021/03/17 05:48:02;;;;;;;21.13;10.20;;;3.90;96.50;;;;;;5029734;28;20211;-72
2021/03/17 05:50:28;;;;;;;20.70;9.90;;;3.90;96.70;;;;;;5032970;28;20544;-73
2021/03/17 05:52:56;;;;;;;22.50;10.87;;;4.00;96.70;;;;;;5048486;28;21137;-72
2021/03/17 05:55:22;;;;;;;26.90;10.43;;;3.90;96.60;;;;;;5048229;28;20422;-72
2021/03/17 05:57:47;;;;;;;29.20;11.20;;;3.90;96.70;;;;;;5049623;28;20500;-72
2021/03/17 06:00:17;;;;;;;20.57;10.47;;;3.80;97.00;;;;;;5052795;28;20181;-71
2021/03/17 06:02:43;;;;;;;24.50;10.83;;;3.80;97.20;;;;;;5053001;28;20173;-72
2021/03/17 06:05:11;;;;;;;19.80;10.03;;;3.90;97.20;;;;;;5024963;28;20451;-72
2021/03/17 06:08:12;;;;;;;26.27;11.57;;;3.80;97.10;;;;;;5034832;28;20420;-74
2021/03/17 06:10:38;;;;;;;26.77;11.80;;;3.90;97.30;;;;;;5025547;28;20932;-72
2021/03/17 06:13:10;;;;;;;21.97;11.10;;;3.90;97.30;;;;;;5036436;28;20432;-72
2021/03/17 06:15:38;;;;;;;26.10;10.40;;;3.90;97.30;;;;;;5047404;28;20474;-71
2021/03/17 06:18:22;;;;;;;25.93;12.00;;;4.10;97.30;;;;;;5041348;28;20447;-70
2021/03/17 06:20:48;;;;;;;29.23;11.17;;;3.90;96.90;;;;;;5046086;28;20427;-73
2021/03/17 06:23:15;;;;;;;26.40;12.53;;;3.90;97.10;;;;;;5052935;28;20447;-72
2021/03/17 06:25:44;;;;;;;27.40;11.97;;;3.90;97.30;;;;;;5048880;28;20419;-72
2021/03/17 06:28:11;;;;;;;25.10;12.97;;;3.90;97.30;;;;;;5044468;28;20456;-71
2021/03/17 06:30:37;;;;;;;26.93;11.70;;;3.90;97.30;;;;;;5046389;28;20458;-72
2021/03/17 06:33:04;;;;;;;30.07;12.13;;;4.00;97.30;;;;;;5031564;28;20505;-72
2021/03/17 06:35:30;;;;;;;29.30;12.60;;;4.10;97.20;;;;;;5045676;28;21026;-72
2021/03/17 06:37:55;;;;;;;26.53;12.60;;;4.00;97.00;;;;;;5049016;28;20447;-71
2021/03/17 06:40:37;;;;;;;25.93;12.33;;;4.00;97.20;;;;;;5056309;28;20423;-72
2021/03/17 06:43:11;;;;;;;25.43;11.67;;;4.10;97.30;;;;;;5046785;28;20220;-73
2021/03/17 06:45:51;;;;;;;29.37;12.43;;;4.10;97.30;;;;;;5045351;28;20460;-73
2021/03/17 06:48:25;;;;;;;29.03;12.17;;;4.20;97.20;;;;;;5055033;28;20433;-71
2021/03/17 06:51:13;;;;;;;28.57;13.03;;;4.10;96.80;;;;;;5033754;28;20535;-73
2021/03/17 06:53:41;;;;;;;28.20;12.00;;;4.00;96.90;;;;;;5038439;28;20435;-73
2021/03/17 06:56:10;;;;;;;28.43;12.47;;;4.10;97.10;;;;;;5042705;28;20422;-73
2021/03/17 06:58:41;;;;;;;28.70;11.73;;;4.10;97.20;;;;;;5036666;28;20417;-74
2021/03/17 07:01:36;;;;;;;26.60;12.27;;;4.10;97.00;;;;;;5051596;28;20430;-73
2021/03/17 07:04:19;;;;;;;29.57;13.00;;;4.10;97.10;;;;;;5027956;28;20459;-78
2021/03/17 07:06:47;;;;;;;29.23;13.27;;;4.10;97.30;;;;;;5039728;28;20420;-79
2021/03/17 07:09:20;;;;;;;25.00;11.37;;;4.10;97.10;;;;;;5047675;28;20446;-79
2021/03/17 07:11:52;;;;;;;22.73;10.53;;;4.20;97.30;;;;;;5032993;28;20478;-78
2021/03/17 07:14:27;;;;;;;28.67;12.13;;;4.20;97.00;;;;;;5039617;28;20440;-77
2021/03/17 07:16:54;;;;;;;24.80;11.43;;;4.30;96.50;;;;;;5022400;28;20788;-77
2021/03/17 07:19:37;;;;;;;28.03;11.50;;;4.40;96.30;;;;;;5020089;28;20432;-78
2021/03/17 07:22:10;;;;;;;20.43;9.30;;;4.50;95.80;;;;;;5033238;28;20462;-72
2021/03/17 07:24:41;;;;;;;19.03;9.17;;;4.60;95.60;;;;;;5035635;28;20442;-72
2021/03/17 07:27:17;;;;;;;25.20;10.53;;;4.60;95.00;;;;;;5052035;28;20425;-73
2021/03/17 07:29:44;;;;;;;22.97;11.70;;;4.60;94.80;;;;;;5038218;28;20781;-72
2021/03/17 07:32:10;;;;;;;25.37;11.00;;;4.50;94.80;;;;;;5037412;28;20451;-71
2021/03/17 07:34:36;;;;;;;24.37;10.93;;;4.40;94.80;;;;;;5023994;28;20440;-72
2021/03/17 07:37:03;;;;;;;24.57;11.70;;;4.50;94.70;;;;;;5038718;28;20652;-72
2021/03/17 07:39:41;;;;;;;27.27;11.37;;;4.50;94.80;;;;;;5037643;28;20911;-72
2021/03/17 07:42:12;;;;;;;25.20;10.67;;;4.50;94.50;;;;;;5048733;28;20415;-71
2021/03/17 07:44:40;;;;;;;20.53;10.23;;;4.60;94.60;;;;;;5029993;28;20451;-74
2021/03/17 07:47:08;;;;;;;21.73;10.63;;;4.80;94.60;;;;;;5033390;28;20458;-73
2021/03/17 07:49:36;;;;;;;20.80;10.07;;;4.80;94.00;;;;;;5037185;28;20448;-71
2021/03/17 07:52:02;;;;;;;22.63;9.60;;;4.80;93.70;;;;;;5050459;28;20511;-72
2021/03/17 07:54:31;;;;;;;22.00;9.80;;;4.90;93.60;;;;;;5043348;28;20435;-73
2021/03/17 07:56:59;;;;;;;20.07;9.43;;;5.10;93.20;;;;;;5036964;28;20809;-72
2021/03/17 07:59:25;;;;;;;20.40;9.50;;;5.10;92.60;;;;;;5037896;28;20427;-71
2021/03/17 08:01:53;;;;;;;25.50;10.00;;;5.20;92.50;;;;;;5043860;28;20430;-71
2021/03/17 08:04:24;;;;;;;12.00;5.40;;;5.20;92.20;;;;;;5021426;28;20467;-72
2021/03/17 08:06:50;;;;;;;7.30;3.03;;;5.00;90.10;;;;;;5033255;28;20772;-75
2021/03/17 08:09:16;;;;;;;13.83;3.70;;;4.90;84.40;;;;;;5039683;28;20424;-73
2021/03/17 08:11:42;;;;;;;7.97;2.27;;;5.00;82.40;;;;;;5036493;28;20459;-74
2021/03/17 08:14:12;;;;;;;8.17;2.33;;;5.20;79.30;;;;;;5029948;28;20204;-72
2021/03/17 08:16:39;;;;;;;5.47;3.33;;;5.40;77.70;;;;;;5030264;28;20709;-73
2021/03/17 08:19:25;;;;;;;6.67;3.67;;;5.60;76.80;;;;;;5030614;28;20451;-73
2021/03/17 08:21:53;;;;;;;7.97;4.00;;;5.60;77.80;;;;;;5029158;28;20840;-75
2021/03/17 08:24:38;;;;;;;10.60;5.53;;;5.60;79.00;;;;;;5041031;28;20876;-74
2021/03/17 08:27:06;;;;;;;10.17;5.47;;;5.60;80.30;;;;;;5050368;28;21141;-71
2021/03/17 08:29:42;;;;;;;12.17;6.17;;;5.60;81.90;;;;;;5032228;28;20431;-71
2021/03/17 08:32:10;;;;;;;12.40;6.30;;;5.80;82.40;;;;;;5028243;28;20478;-71
2021/03/17 08:34:38;;;;;;;18.47;7.33;;;5.90;82.10;;;;;;5034926;28;20442;-72
2021/03/17 08:37:09;;;;;;;13.27;6.60;;;5.80;81.90;;;;;;5049781;28;21132;-75
2021/03/17 08:39:37;;;;;;;10.50;5.87;;;6.00;83.40;;;;;;5025559;28;20426;-73
2021/03/17 08:42:09;;;;;;;12.97;6.20;;;5.90;81.40;;;;;;5049118;28;20522;-72
2021/03/17 08:44:38;;;;;;;14.70;6.83;;;5.90;82.50;;;;;;5048356;28;20446;-73
2021/03/17 08:47:19;;;;;;;18.80;9.00;;;5.80;83.70;;;;;;5045968;28;20952;-73
2021/03/17 08:50:06;;;;;;;19.03;8.00;;;5.50;81.90;;;;;;5029280;28;20458;-72
2021/03/17 08:52:41;;;;;;;20.07;8.67;;;5.40;82.40;;;;;;5022140;28;20491;-74
2021/03/17 08:55:26;;;;;;;17.67;7.97;;;5.70;83.40;;;;;;5028584;28;20799;-71
2021/03/17 08:58:01;;;;;;;17.60;7.53;;;6.00;82.70;;;;;;5041546;28;20517;-73
2021/03/17 09:00:55;;;;;;;17.77;6.47;;;6.00;81.90;;;;;;5048856;28;20473;-73
2021/03/17 09:03:45;;;;;;;17.50;7.90;;;6.00;79.00;;;;;;5042581;28;20455;-73
2021/03/17 09:06:11;;;;;;;15.93;7.50;;;6.20;79.50;;;;;;5023310;28;20428;-72
2021/03/17 09:08:46;;;;;;;11.87;5.73;;;6.50;79.70;;;;;;5042574;28;20516;-73
2021/03/17 09:11:31;;;;;;;15.87;7.30;;;6.70;77.40;;;;;;5035349;28;20287;-71
2021/03/17 09:14:01;;;;;;;13.70;6.37;;;6.90;75.70;;;;;;5037101;28;20450;-72
2021/03/17 09:16:29;;;;;;;9.10;4.50;;;6.90;75.50;;;;;;5043326;28;20440;-72
2021/03/17 09:19:12;;;;;;;9.37;5.40;;;6.70;69.40;;;;;;5039687;28;20423;-73
2021/03/17 09:21:44;;;;;;;14.40;4.67;;;6.70;70.80;;;;;;5035843;28;20777;-72
2021/03/17 09:24:31;;;;;;;7.53;3.60;;;6.80;69.80;;;;;;5032102;28;20803;-72
2021/03/17 09:27:06;;;;;;;7.47;3.87;;;6.90;65.40;;;;;;5038908;28;20435;-72
2021/03/17 09:29:36;;;;;;;11.60;4.70;;;7.00;66.30;;;;;;5034312;28;20434;-73
2021/03/17 09:32:02;;;;;;;10.53;4.80;;;7.10;66.70;;;;;;5037097;28;20546;-72
2021/03/17 09:34:30;;;;;;;12.60;6.30;;;7.10;67.20;;;;;;5031681;28;20456;-72
2021/03/17 09:37:06;;;;;;;10.57;5.50;;;7.10;69.40;;;;;;5043377;28;20430;-71
2021/03/17 09:39:33;;;;;;;7.23;4.20;;;7.30;69.10;;;;;;5032339;28;20442;-72
2021/03/17 09:41:59;;;;;;;6.90;4.53;;;7.40;68.50;;;;;;5032650;28;20427;-71
2021/03/17 09:44:25;;;;;;;5.30;3.80;;;7.50;67.20;;;;;;5051359;28;20462;-73
2021/03/17 09:46:55;;;;;;;6.70;3.63;;;7.10;62.80;;;;;;5053514;28;20195;-72
2021/03/17 09:49:23;;;;;;;8.13;4.07;;;6.70;64.10;;;;;;5050200;28;20197;-72
2021/03/17 09:51:58;;;;;;;10.67;5.20;;;6.50;67.00;;;;;;5036089;28;20466;-72
2021/03/17 09:54:27;;;;;;;10.87;4.97;;;6.60;69.90;;;;;;5036585;28;20439;-72
2021/03/17 09:57:03;;;;;;;8.47;5.00;;;6.70;71.00;;;;;;5052021;28;20429;-72
2021/03/17 09:59:55;;;;;;;11.87;5.20;;;6.90;70.40;;;;;;5049250;28;20418;-72
2021/03/17 10:02:26;;;;;;;10.50;4.70;;;6.70;69.50;;;;;;5024596;28;20505;-72
2021/03/17 10:04:56;;;;;;;10.73;4.70;;;6.90;69.40;;;;;;5036621;28;20529;-72
2021/03/17 10:07:27;;;;;;;10.30;5.00;;;7.10;68.20;;;;;;5042659;28;20909;-72
2021/03/17 10:09:55;;;;;;;8.57;4.10;;;7.50;67.00;;;;;;5037063;28;20419;-72
2021/03/17 10:12:26;;;;;;;6.83;4.10;;;7.70;64.70;;;;;;5027449;28;20509;-72
2021/03/17 10:14:56;;;;;;;9.27;4.97;;;7.60;64.20;;;;;;5033545;28;20444;-72
2021/03/17 10:17:25;;;;;;;8.17;4.33;;;7.70;64.80;;;;;;5034654;28;20454;-73
2021/03/17 10:19:56;;;;;;;7.43;3.73;;;8.10;63.50;;;;;;5035029;28;20515;-71
2021/03/17 10:22:25;;;;;;;8.03;4.37;;;7.90;60.70;;;;;;5034095;28;20427;-76
2021/03/17 10:24:52;;;;;;;6.80;3.90;;;8.00;62.80;;;;;;5032485;28;20460;-72
2021/03/17 10:27:32;;;;;;;7.80;4.50;;;7.80;60.70;;;;;;5034626;28;20436;-72
2021/03/17 10:30:34;;;;;;;10.07;5.07;;;7.50;63.20;;;;;;5023120;28;20526;-73
2021/03/17 10:33:01;;;;;;;8.57;4.37;;;7.40;64.20;;;;;;5019626;28;20463;-72
2021/03/17 10:35:29;;;;;;;7.53;4.30;;;7.30;65.70;;;;;;5047673;28;20454;-73
2021/03/17 10:37:55;;;;;;;14.30;5.13;;;7.50;64.50;;;;;;5052578;28;20480;-73
2021/03/17 10:40:24;;;;;;;12.00;4.27;;;7.70;65.70;;;;;;5040793;28;20445;-71
2021/03/17 10:42:57;;;;;;;6.40;3.83;;;8.10;64.10;;;;;;5043055;28;20420;-73
2021/03/17 10:45:42;;;;;;;7.40;3.90;;;8.10;61.70;;;;;;5063222;28;20419;-71
2021/03/17 10:48:20;;;;;;;11.20;4.07;;;7.90;61.00;;;;;;5045802;28;20451;-71
2021/03/17 10:50:46;;;;;;;5.97;3.87;;;7.90;62.80;;;;;;5031599;28;20478;-71
2021/03/17 10:53:26;;;;;;;8.33;4.50;;;7.90;62.80;;;;;;5030141;28;20439;-71
2021/03/17 10:55:54;;;;;;;4.20;3.00;;;8.00;61.50;;;;;;5049251;28;20929;-72
2021/03/17 10:58:28;;;;;;;6.00;3.40;;;8.40;59.60;;;;;;5049980;28;20517;-73
2021/03/17 11:00:56;;;;;;;9.30;4.17;;;8.50;58.90;;;;;;5038394;28;20487;-73
2021/03/17 11:03:35;;;;;;;7.83;3.90;;;8.20;59.90;;;;;;5047090;28;20799;-71
2021/03/17 11:06:13;;;;;;;11.27;4.53;;;7.80;62.00;;;;;;5023075;28;20423;-71
2021/03/17 11:08:39;;;;;;;8.33;4.13;;;7.50;63.10;;;;;;5035703;28;20453;-73
2021/03/17 11:11:10;;;;;;;9.53;4.53;;;7.50;63.80;;;;;;5051393;28;20489;-72
2021/03/17 11:13:44;;;;;;;7.80;4.17;;;7.20;65.30;;;;;;5043526;28;20431;-71
2021/03/17 11:16:12;;;;;;;6.10;3.50;;;6.90;66.60;;;;;;5031249;28;20605;-74
2021/03/17 11:18:48;;;;;;;7.97;3.90;;;6.60;69.10;;;;;;5051197;28;20416;-71
2021/03/17 11:21:30;;;;;;;7.53;4.13;;;6.30;72.10;;;;;;5049995;28;20936;-72
2021/03/17 11:24:01;;;;;;;6.83;4.07;;;6.10;72.60;;;;;;5045243;28;21101;-71
2021/03/17 11:26:37;;;;;;;10.17;4.30;;;6.00;73.90;;;;;;5029135;28;20788;-72
2021/03/17 11:29:19;;;;;;;8.13;3.70;;;5.90;74.50;;;;;;5042526;28;20414;-71
2021/03/17 11:31:50;;;;;;;13.53;4.03;;;6.00;74.50;;;;;;5040188;28;20454;-73
2021/03/17 11:34:18;;;;;;;8.67;3.90;;;6.20;75.70;;;;;;5032468;28;20539;-72
2021/03/17 11:36:44;;;;;;;6.27;3.77;;;6.20;74.60;;;;;;5042203;28;20423;-72
2021/03/17 11:39:13;;;;;;;16.07;5.53;;;6.30;75.40;;;;;;5046267;28;20420;-71
2021/03/17 11:41:40;;;;;;;16.70;6.50;;;6.50;77.40;;;;;;5041761;28;20433;-72
2021/03/17 11:44:07;;;;;;;12.73;6.50;;;6.50;78.70;;;;;;5034954;28;20462;-72
2021/03/17 11:46:33;;;;;;;13.70;6.83;;;6.40;78.90;;;;;;5036645;28;20432;-71
2021/03/17 11:48:59;;;;;;;10.07;5.83;;;6.30;79.90;;;;;;5043853;28;20449;-70
2021/03/17 11:51:25;;;;;;;13.30;5.50;;;6.20;80.20;;;;;;5042781;28;20485;-73
2021/03/17 11:53:51;;;;;;;11.13;5.97;;;6.10;80.90;;;;;;5035423;28;20478;-71
2021/03/17 11:56:18;;;;;;;12.90;5.37;;;5.90;82.40;;;;;;5035982;28;20189;-72
2021/03/17 11:58:44;;;;;;;14.20;6.40;;;5.70;83.30;;;;;;5042460;28;20428;-72
2021/03/17 12:01:10;;;;;;;12.10;5.53;;;5.40;86.20;;;;;;5041515;28;20434;-72
2021/03/17 12:03:36;;;;;;;12.70;6.40;;;5.40;88.00;;;;;;5027961;28;20445;-71
2021/03/17 12:06:02;;;;;;;13.77;6.07;;;5.30;89.30;;;;;;5023112;28;20432;-72
2021/03/17 12:08:28;;;;;;;13.57;6.90;;;5.10;90.20;;;;;;5029574;28;20503;-72
2021/03/17 12:10:54;;;;;;;16.23;7.00;;;4.90;91.30;;;;;;5025123;28;20547;-72
2021/03/17 12:13:21;;;;;;;15.53;7.70;;;4.70;91.70;;;;;;5026749;28;20440;-71
2021/03/17 12:15:48;;;;;;;16.83;7.20;;;4.60;92.70;;;;;;5040608;28;20422;-71
2021/03/17 12:18:14;;;;;;;20.20;8.03;;;4.60;93.50;;;;;;5036041;28;20431;-71
2021/03/17 12:20:41;;;;;;;16.53;7.77;;;4.50;93.90;;;;;;5037279;28;20915;-72
2021/03/17 12:23:07;;;;;;;22.10;9.63;;;4.40;94.10;;;;;;5044243;28;20451;-73
2021/03/17 12:25:33;;;;;;;15.10;7.90;;;4.30;94.10;;;;;;5037023;28;20826;-71
2021/03/17 12:27:59;;;;;;;17.13;8.40;;;4.20;94.60;;;;;;5042751;28;20434;-71
2021/03/17 12:30:26;;;;;;;18.52;8.50;;;4.20;94.80;;;;;;5029061;28;20474;-72
2021/03/17 12:32:53;;;;;;;20.30;8.90;;;4.30;95.10;;;;;;5042131;28;20212;-71
2021/03/17 12:35:21;;;;;;;16.60;8.53;;;4.40;95.40;;;;;;5040067;28;20422;-72
2021/03/17 12:37:49;;;;;;;19.57;9.60;;;4.40;94.90;;;;;;5032005;28;20444;-72
2021/03/17 12:40:17;;;;;;;16.30;8.53;;;4.30;94.80;;;;;;5031060;28;20456;-73
2021/03/17 12:42:44;;;;;;;23.33;8.33;;;4.20;94.70;;;;;;5020940;28;21119;-73
2021/03/17 12:45:11;;;;;;;16.17;8.17;;;4.10;95.30;;;;;;5046273;28;20427;-72
2021/03/17 12:47:38;;;;;;;20.47;9.17;;;4.10;95.60;;;;;;5040009;28;20423;-73
2021/03/17 12:50:07;;;;;;;21.23;8.03;;;4.30;95.80;;;;;;5036438;28;20447;-73
2021/03/17 12:52:33;;;;;;;18.17;8.27;;;4.30;95.80;;;;;;5045533;28;20470;-73
2021/03/17 12:54:59;;;;;;;17.73;7.87;;;4.30;95.40;;;;;;5021830;28;20420;-72
2021/03/17 12:57:25;;;;;;;15.40;8.00;;;4.30;95.20;;;;;;5035841;28;20180;-70
2021/03/17 12:59:54;;;;;;;19.73;8.40;;;4.30;95.50;;;;;;5044634;28;20485;-71
2021/03/17 13:02:20;;;;;;;16.83;7.50;;;4.30;95.40;;;;;;5036245;28;20509;-71
2021/03/17 13:04:46;;;;;;;14.87;7.37;;;4.40;95.20;;;;;;5019830;28;20447;-71
2021/03/17 13:07:11;;;;;;;13.63;6.80;;;4.30;94.90;;;;;;5048192;28;20415;-70
2021/03/17 13:09:37;;;;;;;17.03;7.57;;;4.30;94.80;;;;;;5052234;28;20624;-72
2021/03/17 13:12:03;;;;;;;17.20;8.07;;;4.30;94.60;;;;;;5029643;28;20647;-72
2021/03/17 13:14:29;;;;;;;16.20;6.73;;;4.40;95.00;;;;;;5049819;28;20275;-73
2021/03/17 13:16:55;;;;;;;12.70;6.80;;;4.50;94.90;;;;;;5033675;28;20590;-71
2021/03/17 13:19:21;;;;;;;13.47;6.43;;;4.50;94.40;;;;;;5036695;28;20652;-72
2021/03/17 13:21:51;;;;;;;15.77;7.33;;;4.60;94.20;;;;;;5033855;28;20185;-73
2021/03/17 13:24:17;;;;;;;9.53;5.80;;;4.70;94.10;;;;;;5040275;28;20469;-72
2021/03/17 13:26:44;;;;;;;13.70;6.60;;;4.80;93.90;;;;;;5031447;28;21221;-71
2021/03/17 13:29:10;;;;;;;13.67;6.67;;;4.90;94.10;;;;;;5031177;28;20423;-73
2021/03/17 13:31:36;;;;;;;14.50;7.63;;;5.10;94.20;;;;;;5042261;28;20459;-73
2021/03/17 13:34:02;;;;;;;15.97;8.23;;;5.40;93.80;;;;;;5029349;28;20967;-72
2021/03/17 13:36:28;;;;;;;15.20;7.37;;;5.40;92.70;;;;;;5035665;28;20492;-73
2021/03/17 13:38:54;;;;;;;17.03;8.10;;;5.40;91.90;;;;;;5048006;28;20423;-73
2021/03/17 13:41:19;;;;;;;14.00;7.00;;;5.50;91.50;;;;;;5028980;28;20201;-71
2021/03/17 13:43:46;;;;;;;13.77;6.90;;;5.50;90.90;;;;;;5032113;28;20448;-70
2021/03/17 13:46:13;;;;;;;13.50;6.93;;;5.70;90.60;;;;;;5041549;28;20246;-74
2021/03/17 13:48:39;;;;;;;14.50;7.43;;;5.80;90.60;;;;;;5026273;28;20630;-71
2021/03/17 13:51:05;;;;;;;16.77;8.80;;;6.10;91.00;;;;;;5032878;28;21363;-72
2021/03/17 13:53:30;;;;;;;15.77;7.37;;;6.50;90.50;;;;;;5036138;28;20574;-73
2021/03/17 13:55:58;;;;;;;14.97;7.47;;;6.90;89.30;;;;;;5034517;28;20451;-73
2021/03/17 13:58:23;;;;;;;14.80;7.47;;;7.20;86.80;;;;;;5034582;28;20232;-72
2021/03/17 14:00:49;;;;;;;16.10;7.80;;;7.90;85.90;;;;;;5051126;28;20454;-69
2021/03/17 14:03:15;;;;;;;19.40;9.17;;;8.50;80.50;;;;;;5032604;28;20212;-72
2021/03/17 14:05:41;;;;;;;17.37;8.40;;;8.40;78.70;;;;;;5029079;28;20191;-74
2021/03/17 14:08:07;;;;;;;17.33;8.40;;;8.20;78.40;;;;;;5052711;28;20184;-71
2021/03/17 14:10:36;;;;;;;20.13;8.00;;;7.90;79.50;;;;;;5047633;28;20697;-74
2021/03/17 14:13:03;;;;;;;16.17;7.77;;;7.70;80.00;;;;;;5028483;28;20444;-72
2021/03/17 14:15:31;;;;;;;14.20;7.90;;;7.20;81.80;;;;;;5029566;28;20427;-73
2021/03/17 14:17:57;;;;;;;10.60;6.23;;;7.00;84.30;;;;;;5028617;28;20431;-73
2021/03/17 14:20:28;;;;;;;16.07;6.03;;;6.60;84.30;;;;;;5036744;28;20481;-73
2021/03/17 14:22:58;;;;;;;12.50;6.63;;;6.10;87.40;;;;;;5044590;28;20447;-71
2021/03/17 14:25:25;;;;;;;12.03;6.90;;;6.00;87.70;;;;;;5032043;28;20407;-73
2021/03/17 14:27:51;;;;;;;11.73;5.90;;;6.10;88.30;;;;;;5031795;28;20829;-72
2021/03/17 14:30:18;;;;;;;10.70;5.90;;;6.10;88.60;;;;;;5050203;28;20453;-72
2021/03/17 14:32:44;;;;;;;9.20;5.30;;;6.30;88.70;;;;;;5050565;28;20471;-75
2021/03/17 14:35:12;;;;;;;8.40;4.90;;;6.50;88.30;;;;;;5050427;28;20419;-73
2021/03/17 14:37:39;;;;;;;11.27;5.90;;;6.30;86.80;;;;;;5051393;28;20553;-71
2021/03/17 14:40:08;;;;;;;13.03;6.13;;;6.20;87.00;;;;;;5051240;28;20574;-71
2021/03/17 14:42:34;;;;;;;10.30;5.40;;;6.20;86.90;;;;;;5048670;28;20432;-76
2021/03/17 14:44:59;;;;;;;8.60;5.23;;;6.60;87.00;;;;;;5038646;28;20965;-74
2021/03/17 14:47:25;;;;;;;8.97;4.80;;;7.20;86.50;;;;;;5033876;28;20250;-72
2021/03/17 14:49:51;;;;;;;8.77;4.97;;;7.70;83.80;;;;;;5035136;28;20515;-70
2021/03/17 14:52:17;;;;;;;6.23;3.90;;;8.10;81.20;;;;;;5040156;28;20252;-73
2021/03/17 14:54:43;;;;;;;9.10;4.80;;;8.10;79.90;;;;;;5033115;28;20515;-73
2021/03/17 14:57:09;;;;;;;8.03;5.00;;;8.50;78.30;;;;;;5035206;28;20459;-71
2021/03/17 14:59:34;;;;;;;7.73;4.53;;;8.80;76.40;;;;;;5033323;28;20193;-72
2021/03/17 15:02:00;;;;;;;7.93;4.20;;;8.60;73.20;;;;;;5048956;28;20271;-74
2021/03/17 15:04:27;;;;;;;8.80;4.40;;;8.00;74.20;;;;;;5031871;28;21336;-73
2021/03/17 15:06:52;;;;;;;6.87;2.97;;;7.20;78.30;;;;;;5039466;28;20330;-71
2021/03/17 15:09:19;;;;;;;5.00;2.27;;;6.40;80.90;;;;;;5042873;28;20885;-73
2021/03/17 15:11:44;;;;;;;6.23;2.50;;;5.60;84.60;;;;;;5039314;28;20213;-72
2021/03/17 15:14:10;;;;;;;3.37;2.13;;;5.10;88.90;;;;;;5029217;28;20450;-70
2021/03/17 15:16:37;;;;;;;4.00;2.20;;;4.50;91.50;;;;;;5034286;28;20660;-72
2021/03/17 15:19:04;;;;;;;3.77;2.00;;;4.30;93.40;;;;;;5038819;28;20451;-74
2021/03/17 15:21:30;;;;;;;2.63;1.60;;;4.20;94.40;;;;;;5046362;28;20459;-72
2021/03/17 15:23:56;;;;;;;4.10;2.20;;;4.00;94.70;;;;;;5044950;28;21325;-71
2021/03/17 15:26:26;;;;;;;3.50;2.03;;;3.80;95.00;;;;;;5038939;28;20492;-74
2021/03/17 15:28:52;;;;;;;3.60;2.30;;;3.50;95.80;;;;;;5042905;28;20219;-72
2021/03/17 15:31:19;;;;;;;5.60;2.27;;;3.40;96.30;;;;;;5047823;28;20467;-73
2021/03/17 15:33:44;;;;;;;4.20;2.00;;;3.60;97.00;;;;;;5045264;28;20447;-73
2021/03/17 15:36:10;;;;;;;5.30;2.33;;;3.70;97.20;;;;;;5029142;28;20420;-73
2021/03/17 15:38:36;;;;;;;4.70;2.60;;;3.70;97.00;;;;;;5029875;28;20188;-73
2021/03/17 15:41:02;;;;;;;3.40;2.10;;;3.70;96.90;;;;;;5049398;28;20188;-72
2021/03/17 15:43:28;;;;;;;4.05;2.50;;;3.60;96.30;;;;;;5036623;28;20444;-70
2021/03/17 15:45:54;;;;;;;3.97;2.67;;;3.40;96.10;;;;;;5029247;28;20897;-71